sensor_id;sensor_type;location;lat;lon;timestamp;P1;durP1;ratioP1;P2;durP2;ratioP2
21107;SDS011;10712;52.944;9.098;2023-09-19T00:00:38;3.50;;;2.88;;
21107;SDS011;10712;52.944;9.098;2023-09-19T00:03:06;4.72;;;2.47;;
21107;SDS011;10712;52.944;9.098;2023-09-19T00:05:34;3.75;;;2.38;;
21107;SDS011;10712;52.944;9.098;2023-09-19T00:08:03;2.97;;;2.50;;
21107;SDS011;10712;52.944;9.098;2023-09-19T00:10:31;5.38;;;2.92;;
21107;SDS011;10712;52.944;9.098;2023-09-19T00:13:00;4.60;;;2.95;;
21107;SDS011;10712;52.944;9.098;2023-09-19T00:18:06;4.45;;;3.08;;
21107;SDS011;10712;52.944;9.098;2023-09-19T00:20:36;5.15;;;2.60;;
21107;SDS011;10712;52.944;9.098;2023-09-19T00:23:04;7.80;;;2.65;;
21107;SDS011;10712;52.944;9.098;2023-09-19T00:25:30;3.38;;;2.35;;
21107;SDS011;10712;52.944;9.098;2023-09-19T00:28:00;3.92;;;2.70;;
21107;SDS011;10712;52.944;9.098;2023-09-19T00:30:26;4.90;;;2.95;;
21107;SDS011;10712;52.944;9.098;2023-09-19T00:32:53;4.53;;;2.60;;
21107;SDS011;10712;52.944;9.098;2023-09-19T00:35:22;5.90;;;3.35;;
21107;SDS011;10712;52.944;9.098;2023-09-19T00:37:49;4.05;;;2.60;;
21107;SDS011;10712;52.944;9.098;2023-09-19T00:40:15;6.70;;;2.47;;
21107;SDS011;10712;52.944;9.098;2023-09-19T00:42:45;5.90;;;2.53;;
21107;SDS011;10712;52.944;9.098;2023-09-19T00:45:12;3.55;;;2.65;;
21107;SDS011;10712;52.944;9.098;2023-09-19T00:47:40;4.72;;;3.25;;
21107;SDS011;10712;52.944;9.098;2023-09-19T00:50:11;6.68;;;2.85;;
21107;SDS011;10712;52.944;9.098;2023-09-19T00:52:40;5.00;;;2.72;;
21107;SDS011;10712;52.944;9.098;2023-09-19T00:55:09;5.72;;;2.35;;
21107;SDS011;10712;52.944;9.098;2023-09-19T00:57:37;5.78;;;3.47;;
21107;SDS011;10712;52.944;9.098;2023-09-19T01:00:05;5.60;;;2.90;;
21107;SDS011;10712;52.944;9.098;2023-09-19T01:02:37;5.97;;;2.92;;
21107;SDS011;10712;52.944;9.098;2023-09-19T01:05:03;3.92;;;2.60;;
21107;SDS011;10712;52.944;9.098;2023-09-19T01:07:31;9.35;;;3.58;;
21107;SDS011;10712;52.944;9.098;2023-09-19T01:09:58;7.20;;;2.70;;
21107;SDS011;10712;52.944;9.098;2023-09-19T01:12:33;4.25;;;2.70;;
21107;SDS011;10712;52.944;9.098;2023-09-19T01:15:13;5.75;;;2.72;;
21107;SDS011;10712;52.944;9.098;2023-09-19T01:17:57;2.17;;;1.90;;
21107;SDS011;10712;52.944;9.098;2023-09-19T01:32:13;4.80;;;2.60;;
21107;SDS011;10712;52.944;9.098;2023-09-19T01:34:53;9.40;;;2.50;;
21107;SDS011;10712;52.944;9.098;2023-09-19T01:37:29;5.75;;;2.97;;
21107;SDS011;10712;52.944;9.098;2023-09-19T01:40:03;9.45;;;2.70;;
21107;SDS011;10712;52.944;9.098;2023-09-19T01:43:00;6.32;;;2.40;;
21107;SDS011;10712;52.944;9.098;2023-09-19T01:48:19;6.45;;;2.80;;
21107;SDS011;10712;52.944;9.098;2023-09-19T01:51:11;10.45;;;2.22;;
21107;SDS011;10712;52.944;9.098;2023-09-19T01:54:03;7.88;;;2.85;;
21107;SDS011;10712;52.944;9.098;2023-09-19T01:59:28;2.83;;;1.30;;
21107;SDS011;10712;52.944;9.098;2023-09-19T02:02:06;2.88;;;1.73;;
21107;SDS011;10712;52.944;9.098;2023-09-19T02:04:34;7.03;;;1.70;;
21107;SDS011;10712;52.944;9.098;2023-09-19T02:07:00;2.85;;;1.30;;
21107;SDS011;10712;52.944;9.098;2023-09-19T02:09:26;5.95;;;1.83;;
21107;SDS011;10712;52.944;9.098;2023-09-19T02:11:52;3.65;;;1.35;;
21107;SDS011;10712;52.944;9.098;2023-09-19T02:14:18;3.08;;;1.55;;
21107;SDS011;10712;52.944;9.098;2023-09-19T02:16:45;3.80;;;1.83;;
21107;SDS011;10712;52.944;9.098;2023-09-19T02:19:10;3.92;;;1.63;;
21107;SDS011;10712;52.944;9.098;2023-09-19T02:21:36;7.13;;;1.88;;
21107;SDS011;10712;52.944;9.098;2023-09-19T02:24:05;3.38;;;1.75;;
21107;SDS011;10712;52.944;9.098;2023-09-19T02:26:33;4.13;;;1.23;;
21107;SDS011;10712;52.944;9.098;2023-09-19T02:29:01;3.72;;;1.40;;
21107;SDS011;10712;52.944;9.098;2023-09-19T02:31:30;3.15;;;1.23;;
21107;SDS011;10712;52.944;9.098;2023-09-19T02:33:56;3.53;;;1.10;;
21107;SDS011;10712;52.944;9.098;2023-09-19T02:36:22;2.55;;;1.05;;
21107;SDS011;10712;52.944;9.098;2023-09-19T02:38:48;4.30;;;1.23;;
21107;SDS011;10712;52.944;9.098;2023-09-19T02:41:15;2.53;;;1.00;;
21107;SDS011;10712;52.944;9.098;2023-09-19T02:43:40;2.13;;;0.90;;
21107;SDS011;10712;52.944;9.098;2023-09-19T02:46:08;2.20;;;0.77;;
21107;SDS011;10712;52.944;9.098;2023-09-19T02:48:34;2.15;;;1.25;;
21107;SDS011;10712;52.944;9.098;2023-09-19T02:51:01;3.55;;;1.30;;
21107;SDS011;10712;52.944;9.098;2023-09-19T02:53:28;2.67;;;1.30;;
21107;SDS011;10712;52.944;9.098;2023-09-19T02:55:56;4.03;;;1.10;;
21107;SDS011;10712;52.944;9.098;2023-09-19T02:58:21;2.08;;;1.00;;
21107;SDS011;10712;52.944;9.098;2023-09-19T03:00:48;1.85;;;0.82;;
21107;SDS011;10712;52.944;9.098;2023-09-19T03:03:16;4.47;;;1.27;;
21107;SDS011;10712;52.944;9.098;2023-09-19T03:05:43;8.05;;;1.60;;
21107;SDS011;10712;52.944;9.098;2023-09-19T03:08:14;5.03;;;1.38;;
21107;SDS011;10712;52.944;9.098;2023-09-19T03:10:40;2.55;;;1.15;;
21107;SDS011;10712;52.944;9.098;2023-09-19T03:13:06;3.05;;;1.33;;
21107;SDS011;10712;52.944;9.098;2023-09-19T03:15:35;3.58;;;1.27;;
21107;SDS011;10712;52.944;9.098;2023-09-19T03:18:04;2.75;;;1.42;;
21107;SDS011;10712;52.944;9.098;2023-09-19T03:20:31;4.80;;;1.38;;
21107;SDS011;10712;52.944;9.098;2023-09-19T03:22:57;4.07;;;1.35;;
21107;SDS011;10712;52.944;9.098;2023-09-19T03:25:23;5.32;;;1.10;;
21107;SDS011;10712;52.944;9.098;2023-09-19T03:27:50;3.38;;;1.15;;
21107;SDS011;10712;52.944;9.098;2023-09-19T03:30:17;3.58;;;1.58;;
21107;SDS011;10712;52.944;9.098;2023-09-19T03:32:44;2.10;;;0.88;;
21107;SDS011;10712;52.944;9.098;2023-09-19T03:35:12;4.07;;;1.30;;
21107;SDS011;10712;52.944;9.098;2023-09-19T03:37:43;5.72;;;1.50;;
21107;SDS011;10712;52.944;9.098;2023-09-19T03:40:10;2.63;;;1.25;;
21107;SDS011;10712;52.944;9.098;2023-09-19T03:42:40;3.05;;;1.35;;
21107;SDS011;10712;52.944;9.098;2023-09-19T03:45:09;5.88;;;1.83;;
21107;SDS011;10712;52.944;9.098;2023-09-19T03:47:41;4.40;;;1.77;;
21107;SDS011;10712;52.944;9.098;2023-09-19T03:50:09;7.35;;;2.00;;
21107;SDS011;10712;52.944;9.098;2023-09-19T03:52:40;4.15;;;1.70;;
21107;SDS011;10712;52.944;9.098;2023-09-19T03:55:06;6.00;;;2.03;;
21107;SDS011;10712;52.944;9.098;2023-09-19T03:57:32;7.50;;;1.88;;
21107;SDS011;10712;52.944;9.098;2023-09-19T04:00:01;2.50;;;1.30;;
21107;SDS011;10712;52.944;9.098;2023-09-19T04:02:38;3.85;;;1.55;;
21107;SDS011;10712;52.944;9.098;2023-09-19T04:05:05;6.80;;;1.70;;
21107;SDS011;10712;52.944;9.098;2023-09-19T04:07:31;6.88;;;2.10;;
21107;SDS011;10712;52.944;9.098;2023-09-19T04:09:57;5.07;;;2.28;;
21107;SDS011;10712;52.944;9.098;2023-09-19T04:12:23;7.00;;;1.67;;
21107;SDS011;10712;52.944;9.098;2023-09-19T04:14:48;5.05;;;1.58;;
21107;SDS011;10712;52.944;9.098;2023-09-19T04:17:15;7.22;;;1.88;;
21107;SDS011;10712;52.944;9.098;2023-09-19T04:19:42;2.92;;;1.90;;
21107;SDS011;10712;52.944;9.098;2023-09-19T04:22:07;8.10;;;1.60;;
21107;SDS011;10712;52.944;9.098;2023-09-19T04:24:34;4.28;;;2.28;;
21107;SDS011;10712;52.944;9.098;2023-09-19T04:27:00;4.65;;;2.25;;
21107;SDS011;10712;52.944;9.098;2023-09-19T04:29:26;11.70;;;1.95;;
21107;SDS011;10712;52.944;9.098;2023-09-19T04:31:54;6.80;;;1.95;;
21107;SDS011;10712;52.944;9.098;2023-09-19T04:34:22;4.15;;;1.48;;
21107;SDS011;10712;52.944;9.098;2023-09-19T04:36:49;5.28;;;2.10;;
21107;SDS011;10712;52.944;9.098;2023-09-19T04:39:15;6.53;;;1.85;;
21107;SDS011;10712;52.944;9.098;2023-09-19T04:41:42;7.63;;;2.10;;
21107;SDS011;10712;52.944;9.098;2023-09-19T04:44:07;6.10;;;2.05;;
21107;SDS011;10712;52.944;9.098;2023-09-19T04:46:34;8.32;;;2.30;;
21107;SDS011;10712;52.944;9.098;2023-09-19T04:49:00;4.80;;;1.63;;
21107;SDS011;10712;52.944;9.098;2023-09-19T04:51:27;8.02;;;2.60;;
21107;SDS011;10712;52.944;9.098;2023-09-19T04:53:58;5.50;;;1.90;;
21107;SDS011;10712;52.944;9.098;2023-09-19T04:56:24;10.07;;;1.90;;
21107;SDS011;10712;52.944;9.098;2023-09-19T04:58:49;6.35;;;2.08;;
21107;SDS011;10712;52.944;9.098;2023-09-19T05:01:15;8.68;;;1.95;;
21107;SDS011;10712;52.944;9.098;2023-09-19T05:03:41;7.50;;;2.42;;
21107;SDS011;10712;52.944;9.098;2023-09-19T05:06:07;4.53;;;2.38;;
21107;SDS011;10712;52.944;9.098;2023-09-19T05:08:33;8.25;;;3.03;;
21107;SDS011;10712;52.944;9.098;2023-09-19T05:11:01;5.97;;;2.03;;
21107;SDS011;10712;52.944;9.098;2023-09-19T05:13:27;7.53;;;2.97;;
21107;SDS011;10712;52.944;9.098;2023-09-19T05:15:53;5.38;;;2.00;;
21107;SDS011;10712;52.944;9.098;2023-09-19T05:18:19;6.97;;;1.92;;
21107;SDS011;10712;52.944;9.098;2023-09-19T05:20:45;3.83;;;1.65;;
21107;SDS011;10712;52.944;9.098;2023-09-19T05:23:11;7.15;;;2.35;;
21107;SDS011;10712;52.944;9.098;2023-09-19T05:25:38;14.90;;;2.70;;
21107;SDS011;10712;52.944;9.098;2023-09-19T05:28:05;7.07;;;2.42;;
21107;SDS011;10712;52.944;9.098;2023-09-19T05:30:33;7.70;;;2.13;;
21107;SDS011;10712;52.944;9.098;2023-09-19T05:33:01;5.55;;;2.13;;
21107;SDS011;10712;52.944;9.098;2023-09-19T05:35:29;11.70;;;3.25;;
21107;SDS011;10712;52.944;9.098;2023-09-19T05:37:56;5.95;;;2.00;;
21107;SDS011;10712;52.944;9.098;2023-09-19T05:40:23;6.10;;;3.00;;
21107;SDS011;10712;52.944;9.098;2023-09-19T05:42:50;8.77;;;2.47;;
21107;SDS011;10712;52.944;9.098;2023-09-19T05:45:16;9.85;;;2.50;;
21107;SDS011;10712;52.944;9.098;2023-09-19T05:47:49;12.60;;;2.92;;
21107;SDS011;10712;52.944;9.098;2023-09-19T05:50:21;11.02;;;2.42;;
21107;SDS011;10712;52.944;9.098;2023-09-19T05:52:53;11.73;;;2.88;;
21107;SDS011;10712;52.944;9.098;2023-09-19T05:55:21;11.95;;;3.35;;
21107;SDS011;10712;52.944;9.098;2023-09-19T05:57:50;8.95;;;2.65;;
21107;SDS011;10712;52.944;9.098;2023-09-19T06:00:20;9.20;;;3.20;;
21107;SDS011;10712;52.944;9.098;2023-09-19T06:02:55;10.15;;;3.30;;
21107;SDS011;10712;52.944;9.098;2023-09-19T06:05:23;13.02;;;3.58;;
21107;SDS011;10712;52.944;9.098;2023-09-19T06:07:56;9.80;;;2.67;;
21107;SDS011;10712;52.944;9.098;2023-09-19T06:10:25;11.15;;;3.40;;
21107;SDS011;10712;52.944;9.098;2023-09-19T06:12:53;11.52;;;3.38;;
21107;SDS011;10712;52.944;9.098;2023-09-19T06:15:20;11.50;;;3.13;;
21107;SDS011;10712;52.944;9.098;2023-09-19T06:17:51;15.07;;;3.53;;
21107;SDS011;10712;52.944;9.098;2023-09-19T06:20:23;16.77;;;3.67;;
21107;SDS011;10712;52.944;9.098;2023-09-19T06:22:51;11.43;;;3.60;;
21107;SDS011;10712;52.944;9.098;2023-09-19T06:25:18;8.35;;;3.08;;
21107;SDS011;10712;52.944;9.098;2023-09-19T06:27:45;8.40;;;3.17;;
21107;SDS011;10712;52.944;9.098;2023-09-19T06:30:12;14.65;;;3.55;;
21107;SDS011;10712;52.944;9.098;2023-09-19T06:32:39;9.80;;;2.75;;
21107;SDS011;10712;52.944;9.098;2023-09-19T06:35:10;13.82;;;3.50;;
21107;SDS011;10712;52.944;9.098;2023-09-19T06:37:38;9.68;;;2.65;;
21107;SDS011;10712;52.944;9.098;2023-09-19T06:40:12;9.18;;;3.35;;
21107;SDS011;10712;52.944;9.098;2023-09-19T06:42:46;13.40;;;3.13;;
21107;SDS011;10712;52.944;9.098;2023-09-19T06:45:16;6.90;;;2.25;;
21107;SDS011;10712;52.944;9.098;2023-09-19T06:47:50;10.77;;;2.97;;
21107;SDS011;10712;52.944;9.098;2023-09-19T06:50:17;10.27;;;2.85;;
21107;SDS011;10712;52.944;9.098;2023-09-19T06:52:49;9.05;;;2.85;;
21107;SDS011;10712;52.944;9.098;2023-09-19T06:55:17;11.23;;;2.22;;
21107;SDS011;10712;52.944;9.098;2023-09-19T06:57:45;5.88;;;2.10;;
21107;SDS011;10712;52.944;9.098;2023-09-19T07:00:13;12.00;;;3.03;;
21107;SDS011;10712;52.944;9.098;2023-09-19T07:05:35;12.07;;;2.78;;
21107;SDS011;10712;52.944;9.098;2023-09-19T07:08:05;9.52;;;3.05;;
21107;SDS011;10712;52.944;9.098;2023-09-19T07:10:33;12.60;;;3.20;;
21107;SDS011;10712;52.944;9.098;2023-09-19T07:13:00;10.00;;;2.63;;
21107;SDS011;10712;52.944;9.098;2023-09-19T07:15:31;10.82;;;2.65;;
21107;SDS011;10712;52.944;9.098;2023-09-19T07:18:02;6.35;;;2.20;;
21107;SDS011;10712;52.944;9.098;2023-09-19T07:20:28;9.68;;;2.33;;
21107;SDS011;10712;52.944;9.098;2023-09-19T07:22:57;7.30;;;2.00;;
21107;SDS011;10712;52.944;9.098;2023-09-19T07:25:27;11.93;;;2.70;;
21107;SDS011;10712;52.944;9.098;2023-09-19T07:27:57;9.40;;;2.70;;
21107;SDS011;10712;52.944;9.098;2023-09-19T07:34:33;14.60;;;2.80;;
21107;SDS011;10712;52.944;9.098;2023-09-19T07:36:59;12.40;;;2.05;;
21107;SDS011;10712;52.944;9.098;2023-09-19T07:39:25;11.23;;;2.22;;
21107;SDS011;10712;52.944;9.098;2023-09-19T07:41:51;10.00;;;2.58;;
21107;SDS011;10712;52.944;9.098;2023-09-19T07:44:19;9.68;;;2.03;;
21107;SDS011;10712;52.944;9.098;2023-09-19T07:46:46;10.43;;;2.28;;
21107;SDS011;10712;52.944;9.098;2023-09-19T07:49:16;12.77;;;2.75;;
21107;SDS011;10712;52.944;9.098;2023-09-19T07:51:43;12.63;;;2.03;;
21107;SDS011;10712;52.944;9.098;2023-09-19T07:54:12;11.38;;;1.58;;
21107;SDS011;10712;52.944;9.098;2023-09-19T07:56:40;7.40;;;1.95;;
21107;SDS011;10712;52.944;9.098;2023-09-19T07:59:06;7.43;;;2.08;;
21107;SDS011;10712;52.944;9.098;2023-09-19T08:01:33;6.25;;;1.85;;
21107;SDS011;10712;52.944;9.098;2023-09-19T08:04:00;7.75;;;1.92;;
21107;SDS011;10712;52.944;9.098;2023-09-19T08:06:27;13.07;;;2.30;;
21107;SDS011;10712;52.944;9.098;2023-09-19T08:08:55;8.13;;;1.88;;
21107;SDS011;10712;52.944;9.098;2023-09-19T08:11:22;15.50;;;2.05;;
21107;SDS011;10712;52.944;9.098;2023-09-19T08:13:49;5.10;;;1.70;;
21107;SDS011;10712;52.944;9.098;2023-09-19T08:16:16;8.18;;;2.03;;
21107;SDS011;10712;52.944;9.098;2023-09-19T08:18:46;6.88;;;1.98;;
21107;SDS011;10712;52.944;9.098;2023-09-19T08:21:14;9.38;;;2.05;;
21107;SDS011;10712;52.944;9.098;2023-09-19T08:23:41;9.57;;;2.30;;
21107;SDS011;10712;52.944;9.098;2023-09-19T08:26:07;8.18;;;2.17;;
21107;SDS011;10712;52.944;9.098;2023-09-19T08:28:34;7.05;;;1.58;;
21107;SDS011;10712;52.944;9.098;2023-09-19T08:31:02;9.15;;;2.25;;
21107;SDS011;10712;52.944;9.098;2023-09-19T08:33:36;11.13;;;2.95;;
21107;SDS011;10712;52.944;9.098;2023-09-19T08:36:03;8.35;;;2.03;;
21107;SDS011;10712;52.944;9.098;2023-09-19T08:38:30;6.70;;;1.85;;
21107;SDS011;10712;52.944;9.098;2023-09-19T08:40:59;6.20;;;2.03;;
21107;SDS011;10712;52.944;9.098;2023-09-19T08:43:30;12.60;;;2.80;;
21107;SDS011;10712;52.944;9.098;2023-09-19T08:51:07;9.95;;;2.28;;
21107;SDS011;10712;52.944;9.098;2023-09-19T08:53:58;3.97;;;1.98;;
21107;SDS011;10712;52.944;9.098;2023-09-19T08:56:30;7.00;;;1.75;;
21107;SDS011;10712;52.944;9.098;2023-09-19T08:59:02;7.72;;;2.15;;
21107;SDS011;10712;52.944;9.098;2023-09-19T09:01:29;5.40;;;1.60;;
21107;SDS011;10712;52.944;9.098;2023-09-19T09:03:57;7.22;;;1.30;;
21107;SDS011;10712;52.944;9.098;2023-09-19T09:06:24;8.65;;;2.15;;
21107;SDS011;10712;52.944;9.098;2023-09-19T09:08:53;11.73;;;2.00;;
21107;SDS011;10712;52.944;9.098;2023-09-19T09:11:19;7.45;;;1.85;;
21107;SDS011;10712;52.944;9.098;2023-09-19T09:13:47;9.63;;;1.70;;
21107;SDS011;10712;52.944;9.098;2023-09-19T09:16:13;8.85;;;1.95;;
21107;SDS011;10712;52.944;9.098;2023-09-19T09:18:44;8.35;;;1.95;;
21107;SDS011;10712;52.944;9.098;2023-09-19T09:21:11;8.30;;;1.95;;
21107;SDS011;10712;52.944;9.098;2023-09-19T09:23:39;10.02;;;2.25;;
21107;SDS011;10712;52.944;9.098;2023-09-19T09:26:05;7.05;;;1.70;;
21107;SDS011;10712;52.944;9.098;2023-09-19T09:28:33;8.75;;;1.60;;
21107;SDS011;10712;52.944;9.098;2023-09-19T09:31:01;5.55;;;1.52;;
21107;SDS011;10712;52.944;9.098;2023-09-19T09:33:37;9.52;;;2.47;;
21107;SDS011;10712;52.944;9.098;2023-09-19T09:36:04;10.85;;;1.70;;
21107;SDS011;10712;52.944;9.098;2023-09-19T09:38:47;6.47;;;2.13;;
21107;SDS011;10712;52.944;9.098;2023-09-19T09:41:20;8.50;;;2.80;;
21107;SDS011;10712;52.944;9.098;2023-09-19T09:44:35;11.85;;;2.42;;
21107;SDS011;10712;52.944;9.098;2023-09-19T09:46:57;8.45;;;2.05;;
21107;SDS011;10712;52.944;9.098;2023-09-19T09:49:47;12.35;;;1.98;;
21107;SDS011;10712;52.944;9.098;2023-09-19T09:52:19;7.97;;;2.13;;
21107;SDS011;10712;52.944;9.098;2023-09-19T09:55:01;8.02;;;1.65;;
21107;SDS011;10712;52.944;9.098;2023-09-19T09:57:33;6.22;;;1.45;;
21107;SDS011;10712;52.944;9.098;2023-09-19T09:59:59;5.25;;;2.00;;
21107;SDS011;10712;52.944;9.098;2023-09-19T10:02:37;15.40;;;1.92;;
21107;SDS011;10712;52.944;9.098;2023-09-19T10:07:52;7.13;;;1.77;;
21107;SDS011;10712;52.944;9.098;2023-09-19T10:13:08;12.10;;;2.88;;
21107;SDS011;10712;52.944;9.098;2023-09-19T10:15:44;8.27;;;2.20;;
21107;SDS011;10712;52.944;9.098;2023-09-19T10:18:16;6.03;;;1.50;;
21107;SDS011;10712;52.944;9.098;2023-09-19T10:20:49;9.02;;;2.25;;
21107;SDS011;10712;52.944;9.098;2023-09-19T10:23:19;4.55;;;1.33;;
21107;SDS011;10712;52.944;9.098;2023-09-19T10:25:51;10.30;;;1.95;;
21107;SDS011;10712;52.944;9.098;2023-09-19T10:28:18;7.50;;;1.70;;
21107;SDS011;10712;52.944;9.098;2023-09-19T10:30:49;5.15;;;1.90;;
21107;SDS011;10712;52.944;9.098;2023-09-19T10:33:18;5.82;;;1.45;;
21107;SDS011;10712;52.944;9.098;2023-09-19T10:35:56;8.68;;;1.58;;
21107;SDS011;10712;52.944;9.098;2023-09-19T10:38:26;6.60;;;1.95;;
21107;SDS011;10712;52.944;9.098;2023-09-19T10:40:54;7.10;;;2.10;;
21107;SDS011;10712;52.944;9.098;2023-09-19T10:43:25;6.47;;;2.27;;
21107;SDS011;10712;52.944;9.098;2023-09-19T10:46:01;8.77;;;2.10;;
21107;SDS011;10712;52.944;9.098;2023-09-19T10:48:32;12.43;;;2.33;;
21107;SDS011;10712;52.944;9.098;2023-09-19T10:51:01;7.93;;;1.92;;
21107;SDS011;10712;52.944;9.098;2023-09-19T10:53:45;6.93;;;2.05;;
21107;SDS011;10712;52.944;9.098;2023-09-19T10:56:38;6.55;;;1.75;;
21107;SDS011;10712;52.944;9.098;2023-09-19T10:59:14;6.45;;;1.60;;
21107;SDS011;10712;52.944;9.098;2023-09-19T11:04:26;8.60;;;2.47;;
21107;SDS011;10712;52.944;9.098;2023-09-19T11:09:49;10.52;;;2.42;;
21107;SDS011;10712;52.944;9.098;2023-09-19T11:15:02;11.00;;;2.22;;
21107;SDS011;10712;52.944;9.098;2023-09-19T11:17:42;7.97;;;2.55;;
21107;SDS011;10712;52.944;9.098;2023-09-19T11:30:46;8.77;;;1.92;;
21107;SDS011;10712;52.944;9.098;2023-09-19T11:36:10;10.23;;;1.75;;
21107;SDS011;10712;52.944;9.098;2023-09-19T11:41:55;5.03;;;1.83;;
21107;SDS011;10712;52.944;9.098;2023-09-19T11:46:29;14.02;;;2.35;;
21107;SDS011;10712;52.944;9.098;2023-09-19T11:49:07;6.45;;;2.35;;
21107;SDS011;10712;52.944;9.098;2023-09-19T11:51:40;6.80;;;2.22;;
21107;SDS011;10712;52.944;9.098;2023-09-19T11:54:12;7.35;;;2.17;;
21107;SDS011;10712;52.944;9.098;2023-09-19T11:56:43;7.90;;;2.03;;
21107;SDS011;10712;52.944;9.098;2023-09-19T11:59:10;8.75;;;2.38;;
21107;SDS011;10712;52.944;9.098;2023-09-19T12:01:37;5.65;;;1.75;;
21107;SDS011;10712;52.944;9.098;2023-09-19T12:04:15;7.63;;;2.40;;
21107;SDS011;10712;52.944;9.098;2023-09-19T12:06:45;11.70;;;2.22;;
21107;SDS011;10712;52.944;9.098;2023-09-19T12:09:23;6.40;;;2.00;;
21107;SDS011;10712;52.944;9.098;2023-09-19T12:11:50;9.82;;;2.88;;
21107;SDS011;10712;52.944;9.098;2023-09-19T12:14:23;5.75;;;1.80;;
21107;SDS011;10712;52.944;9.098;2023-09-19T12:16:54;7.60;;;2.30;;
21107;SDS011;10712;52.944;9.098;2023-09-19T12:19:21;5.18;;;1.80;;
21107;SDS011;10712;52.944;9.098;2023-09-19T12:21:55;7.32;;;1.83;;
21107;SDS011;10712;52.944;9.098;2023-09-19T12:24:25;5.65;;;1.67;;
21107;SDS011;10712;52.944;9.098;2023-09-19T12:26:54;6.63;;;2.08;;
21107;SDS011;10712;52.944;9.098;2023-09-19T12:29:44;7.18;;;1.55;;
21107;SDS011;10712;52.944;9.098;2023-09-19T12:32:14;6.85;;;2.08;;
21107;SDS011;10712;52.944;9.098;2023-09-19T12:34:52;4.72;;;1.65;;
21107;SDS011;10712;52.944;9.098;2023-09-19T12:37:19;9.73;;;2.55;;
21107;SDS011;10712;52.944;9.098;2023-09-19T12:40:03;7.10;;;2.00;;
21107;SDS011;10712;52.944;9.098;2023-09-19T12:42:42;5.10;;;2.03;;
21107;SDS011;10712;52.944;9.098;2023-09-19T12:45:10;6.47;;;1.90;;
21107;SDS011;10712;52.944;9.098;2023-09-19T12:47:40;5.95;;;1.65;;
21107;SDS011;10712;52.944;9.098;2023-09-19T12:51:08;6.13;;;1.98;;
21107;SDS011;10712;52.944;9.098;2023-09-19T12:53:40;8.63;;;2.30;;
21107;SDS011;10712;52.944;9.098;2023-09-19T12:56:15;6.72;;;1.80;;
21107;SDS011;10712;52.944;9.098;2023-09-19T12:58:50;6.65;;;2.13;;
21107;SDS011;10712;52.944;9.098;2023-09-19T13:01:25;5.93;;;2.33;;
21107;SDS011;10712;52.944;9.098;2023-09-19T13:04:10;6.75;;;1.90;;
21107;SDS011;10712;52.944;9.098;2023-09-19T13:06:49;3.92;;;1.98;;
21107;SDS011;10712;52.944;9.098;2023-09-19T13:09:16;11.80;;;2.45;;
21107;SDS011;10712;52.944;9.098;2023-09-19T13:11:45;9.77;;;1.95;;
21107;SDS011;10712;52.944;9.098;2023-09-19T13:16:57;11.82;;;2.25;;
21107;SDS011;10712;52.944;9.098;2023-09-19T13:22:56;9.45;;;2.42;;
21107;SDS011;10712;52.944;9.098;2023-09-19T13:25:14;10.45;;;2.00;;
21107;SDS011;10712;52.944;9.098;2023-09-19T13:27:46;13.32;;;2.22;;
21107;SDS011;10712;52.944;9.098;2023-09-19T13:30:19;5.55;;;1.88;;
21107;SDS011;10712;52.944;9.098;2023-09-19T13:32:47;12.40;;;2.33;;
21107;SDS011;10712;52.944;9.098;2023-09-19T13:35:13;6.25;;;1.80;;
21107;SDS011;10712;52.944;9.098;2023-09-19T13:37:40;7.57;;;2.38;;
21107;SDS011;10712;52.944;9.098;2023-09-19T13:42:35;7.70;;;2.55;;
21107;SDS011;10712;52.944;9.098;2023-09-19T13:45:02;6.85;;;2.08;;
21107;SDS011;10712;52.944;9.098;2023-09-19T13:47:33;7.97;;;2.63;;
21107;SDS011;10712;52.944;9.098;2023-09-19T13:49:59;7.07;;;1.88;;
21107;SDS011;10712;52.944;9.098;2023-09-19T13:52:29;7.70;;;1.95;;
21107;SDS011;10712;52.944;9.098;2023-09-19T13:54:58;6.55;;;2.00;;
21107;SDS011;10712;52.944;9.098;2023-09-19T13:57:24;12.90;;;2.13;;
21107;SDS011;10712;52.944;9.098;2023-09-19T13:59:51;5.38;;;1.42;;
21107;SDS011;10712;52.944;9.098;2023-09-19T14:02:21;6.63;;;1.88;;
21107;SDS011;10712;52.944;9.098;2023-09-19T14:04:49;5.63;;;1.80;;
21107;SDS011;10712;52.944;9.098;2023-09-19T14:07:15;4.47;;;1.45;;
21107;SDS011;10712;52.944;9.098;2023-09-19T14:09:42;11.10;;;2.92;;
21107;SDS011;10712;52.944;9.098;2023-09-19T14:12:08;10.57;;;2.22;;
21107;SDS011;10712;52.944;9.098;2023-09-19T14:14:34;9.98;;;2.08;;
21107;SDS011;10712;52.944;9.098;2023-09-19T14:17:00;8.98;;;2.50;;
21107;SDS011;10712;52.944;9.098;2023-09-19T14:19:26;4.60;;;1.98;;
21107;SDS011;10712;52.944;9.098;2023-09-19T14:21:52;7.45;;;1.88;;
21107;SDS011;10712;52.944;9.098;2023-09-19T14:24:21;8.63;;;2.17;;
21107;SDS011;10712;52.944;9.098;2023-09-19T14:26:48;6.47;;;1.92;;
21107;SDS011;10712;52.944;9.098;2023-09-19T14:29:15;11.30;;;2.25;;
21107;SDS011;10712;52.944;9.098;2023-09-19T14:31:41;8.32;;;2.38;;
21107;SDS011;10712;52.944;9.098;2023-09-19T14:34:08;5.28;;;1.95;;
21107;SDS011;10712;52.944;9.098;2023-09-19T14:36:37;5.85;;;2.13;;
21107;SDS011;10712;52.944;9.098;2023-09-19T14:39:06;5.03;;;2.00;;
21107;SDS011;10712;52.944;9.098;2023-09-19T14:41:33;7.05;;;2.35;;
21107;SDS011;10712;52.944;9.098;2023-09-19T14:43:59;8.57;;;2.05;;
21107;SDS011;10712;52.944;9.098;2023-09-19T14:46:27;7.90;;;2.00;;
21107;SDS011;10712;52.944;9.098;2023-09-19T14:48:53;9.85;;;1.70;;
21107;SDS011;10712;52.944;9.098;2023-09-19T14:51:24;11.23;;;2.37;;
21107;SDS011;10712;52.944;9.098;2023-09-19T14:53:50;6.22;;;1.77;;
21107;SDS011;10712;52.944;9.098;2023-09-19T14:56:16;4.38;;;1.77;;
21107;SDS011;10712;52.944;9.098;2023-09-19T14:58:45;13.43;;;2.30;;
21107;SDS011;10712;52.944;9.098;2023-09-19T15:01:13;6.97;;;1.70;;
21107;SDS011;10712;52.944;9.098;2023-09-19T15:03:40;7.07;;;2.03;;
21107;SDS011;10712;52.944;9.098;2023-09-19T15:06:11;9.07;;;1.90;;
21107;SDS011;10712;52.944;9.098;2023-09-19T15:08:43;7.97;;;2.00;;
21107;SDS011;10712;52.944;9.098;2023-09-19T15:11:13;15.82;;;2.25;;
21107;SDS011;10712;52.944;9.098;2023-09-19T15:13:45;9.18;;;1.95;;
21107;SDS011;10712;52.944;9.098;2023-09-19T15:16:12;7.07;;;1.77;;
21107;SDS011;10712;52.944;9.098;2023-09-19T15:18:42;5.87;;;1.60;;
21107;SDS011;10712;52.944;9.098;2023-09-19T15:21:12;5.57;;;1.80;;
21107;SDS011;10712;52.944;9.098;2023-09-19T15:23:40;7.13;;;1.75;;
21107;SDS011;10712;52.944;9.098;2023-09-19T15:26:09;6.38;;;2.17;;
21107;SDS011;10712;52.944;9.098;2023-09-19T15:28:38;7.32;;;1.60;;
21107;SDS011;10712;52.944;9.098;2023-09-19T15:31:05;3.10;;;1.60;;
21107;SDS011;10712;52.944;9.098;2023-09-19T15:33:34;5.00;;;1.58;;
21107;SDS011;10712;52.944;9.098;2023-09-19T15:41:26;6.38;;;1.98;;
21107;SDS011;10712;52.944;9.098;2023-09-19T15:43:56;7.60;;;2.55;;
21107;SDS011;10712;52.944;9.098;2023-09-19T15:46:24;6.03;;;2.08;;
21107;SDS011;10712;52.944;9.098;2023-09-19T15:48:52;7.72;;;1.90;;
21107;SDS011;10712;52.944;9.098;2023-09-19T15:51:19;9.27;;;2.10;;
21107;SDS011;10712;52.944;9.098;2023-09-19T15:53:46;7.05;;;1.70;;
21107;SDS011;10712;52.944;9.098;2023-09-19T15:56:14;5.68;;;1.50;;
21107;SDS011;10712;52.944;9.098;2023-09-19T15:58:43;6.85;;;2.20;;
21107;SDS011;10712;52.944;9.098;2023-09-19T16:01:11;6.60;;;1.98;;
21107;SDS011;10712;52.944;9.098;2023-09-19T16:03:38;7.25;;;2.38;;
21107;SDS011;10712;52.944;9.098;2023-09-19T16:06:09;9.32;;;2.25;;
21107;SDS011;10712;52.944;9.098;2023-09-19T16:08:39;4.45;;;1.90;;
21107;SDS011;10712;52.944;9.098;2023-09-19T16:11:05;4.22;;;1.42;;
21107;SDS011;10712;52.944;9.098;2023-09-19T16:13:33;5.55;;;1.73;;
21107;SDS011;10712;52.944;9.098;2023-09-19T16:15:58;5.85;;;1.67;;
21107;SDS011;10712;52.944;9.098;2023-09-19T16:18:24;6.57;;;2.20;;